Terminal Aerodrome Forecast
Issued by NWS

Home | Current Version | Previous Version | Graphics & Text | Print | Product List | Glossary On
Versions: 1 2 3 4 5 6 7 8 9 10 11 12
083
FTUS43 KUNR 230528
TAFGCC
TAF
KGCC 230528Z 2306/2406 36015KT P6SM BKN080
     FM231900 34007KT P6SM SCT200=

USA.gov is the U.S. government's official web portal to all federal, state and local government web resources and services.